Weather at Los Malabares Airport

Public forecast

Using degrees Celsius for public forecast. Weather courtesy of forecast.io.

Closest aviation weather report (METAR) to Los Malabares Airport

Report is more than 6 hours old.

Closest report is San Antonio Del Tachira Airport, 13.5 nm (25.0 km) N. Retrieved 2020/10/23 22:00 UTC (1 month ago):

SVSA 232200Z 0Z 2400/2500 06002KT 9999 SCT013 TX35/2419Z TN24/2408Z TEMPO 2400/2404 27004KT 9000 DZ SCT013

Closest aviation forecast (TAF) to Los Malabares Airport

Closest forecast is San Antonio Del Tachira Airport, 13.5 nm (25.0 km) N. Retrieved 2020/11/28 06:06 UTC (1 hour ago):

TAF TAF SVSA 280400Z 2806/2906 34003KT 9999 SCT016 TX33/2819Z TN25/2808Z PROB30 TEMPO 2806/2810 32004KT 8000 DZ BKN016